createdAt,value
2023-02-28T00:05:21.399Z,100656.47
2023-02-28T00:11:23.617Z,100664.56
2023-02-28T00:17:25.592Z,100652.06
2023-02-28T00:23:28.430Z,100647.66
2023-02-28T00:29:30.334Z,100652.34
2023-02-28T00:35:32.251Z,100654.69
2023-02-28T00:41:34.149Z,100649.31
2023-02-28T00:47:36.192Z,100662.59
2023-02-28T00:53:38.301Z,100653.56
2023-02-28T00:59:40.209Z,100651.78
2023-02-28T01:05:42.410Z,100658.91
2023-02-28T01:11:45.078Z,100645.59
2023-02-28T01:17:46.969Z,100645.56
2023-02-28T01:23:50.151Z,100634.25
2023-02-28T01:29:52.260Z,100632.47
2023-02-28T01:36:07.245Z,100630.72
2023-02-28T01:42:11.009Z,100630.19
2023-02-28T01:48:13.664Z,100629.97
2023-02-28T01:54:22.861Z,100629.13
2023-02-28T02:00:30.275Z,100623.34
2023-02-28T02:06:48.536Z,100614.78
2023-02-28T02:13:15.202Z,100611.44
2023-02-28T02:20:13.502Z,100603.72
2023-02-28T02:26:52.243Z,100608.13
2023-02-28T02:32:57.040Z,100602.25
2023-02-28T02:39:25.082Z,100606.47
2023-02-28T02:45:36.781Z,100610.78
2023-02-28T02:51:41.789Z,100602.75
2023-02-28T02:57:56.531Z,100603.19
2023-02-28T03:04:12.055Z,100611.44
2023-02-28T03:10:43.111Z,100610.91
2023-02-28T03:17:09.360Z,100610.50
2023-02-28T03:24:06.814Z,100613.84
2023-02-28T03:30:30.517Z,100619.88
2023-02-28T03:36:45.335Z,100624.78
2023-02-28T03:42:52.637Z,100625.94
2023-02-28T03:49:17.116Z,100625.75
2023-02-28T03:55:20.280Z,100616.25
2023-02-28T04:01:42.722Z,100621.84
2023-02-28T04:07:44.646Z,100621.22
2023-02-28T04:13:47.612Z,100626.91
2023-02-28T04:19:50.840Z,100624.13
2023-02-28T04:25:56.573Z,100617.03
2023-02-28T04:32:00.488Z,100629.75
2023-02-28T04:38:02.534Z,100628.94
2023-02-28T04:44:04.726Z,100631.16
2023-02-28T04:50:07.065Z,100633.44
2023-02-28T04:56:12.763Z,100636.16
2023-02-28T05:02:14.746Z,100633.63
2023-02-28T05:08:16.652Z,100633.81
2023-02-28T05:14:18.568Z,100631.28
2023-02-28T05:20:21.882Z,100634.06
2023-02-28T05:26:24.972Z,100626.91
2023-02-28T05:32:26.899Z,100632.03
2023-02-28T05:38:28.823Z,100636.75
2023-02-28T05:44:30.949Z,100637.78
2023-02-28T05:50:32.851Z,100643.59
2023-02-28T05:56:40.110Z,100647.41
2023-02-28T06:02:42.148Z,100655.00
2023-02-28T06:08:45.619Z,100650.38
2023-02-28T06:14:47.563Z,100657.28
2023-02-28T06:20:56.572Z,100666.53
2023-02-28T06:27:05.725Z,100663.59
2023-02-28T06:33:07.643Z,100674.59
2023-02-28T06:39:10.817Z,100675.38
2023-02-28T06:45:13.399Z,100682.56
2023-02-28T06:51:21.313Z,100688.06
2023-02-28T06:57:25.837Z,100688.97
2023-02-28T07:03:27.830Z,100686.88
2023-02-28T07:09:30.670Z,100691.84
2023-02-28T07:15:32.789Z,100697.22
2023-02-28T07:21:34.700Z,100696.59
2023-02-28T07:27:36.913Z,100701.19
2023-02-28T07:33:39.619Z,100704.63
2023-02-28T07:39:44.735Z,100703.13
2023-02-28T07:45:46.648Z,100697.16
2023-02-28T07:51:48.677Z,100696.53
2023-02-28T07:57:50.565Z,100717.25
2023-02-28T08:03:52.667Z,100708.81
2023-02-28T08:09:54.670Z,100711.09
2023-02-28T08:15:57.556Z,100704.13
2023-02-28T08:21:59.946Z,100709.56
2023-02-28T08:28:01.931Z,100712.22
2023-02-28T08:34:16.019Z,100710.19
2023-02-28T08:40:19.821Z,100707.34
2023-02-28T08:46:21.893Z,100707.81
2023-02-28T08:52:23.783Z,100707.34
2023-02-28T08:58:25.848Z,100704.72
2023-02-28T09:04:27.908Z,100699.44
2023-02-28T09:10:29.823Z,100706.53
2023-02-28T09:16:34.776Z,100706.09
2023-02-28T09:22:36.872Z,100709.94
2023-02-28T09:28:38.749Z,100719.56
2023-02-28T09:34:40.804Z,100714.59
2023-02-28T09:40:59.093Z,100719.81
2023-02-28T09:47:30.379Z,100707.75
2023-02-28T09:53:36.346Z,100702.03
2023-02-28T10:00:02.305Z,100701.78
2023-02-28T10:06:20.615Z,100703.56
2023-02-28T10:12:22.671Z,100704.41
2023-02-28T10:18:31.815Z,100705.50
2023-02-28T10:24:47.724Z,100702.78
2023-02-28T10:30:53.092Z,100699.78
2023-02-28T10:36:56.778Z,100694.22
2023-02-28T10:43:04.032Z,100693.81
2023-02-28T10:49:35.708Z,100690.56
2023-02-28T10:55:38.169Z,100689.78
2023-02-28T11:01:49.952Z,100676.63
2023-02-28T11:08:16.014Z,100690.25
2023-02-28T11:14:30.642Z,100679.00
2023-02-28T11:20:35.347Z,100675.72
2023-02-28T11:26:47.234Z,100681.56
2023-02-28T11:32:52.316Z,100668.66
2023-02-28T11:39:02.676Z,100664.41
2023-02-28T11:45:34.711Z,100662.66
2023-02-28T11:51:52.959Z,100653.66
2023-02-28T11:58:25.319Z,100651.66
2023-02-28T12:04:35.942Z,100646.69
2023-02-28T12:11:10.195Z,100632.28
2023-02-28T12:17:26.940Z,100629.38
2023-02-28T12:24:12.149Z,100626.00
2023-02-28T12:30:16.752Z,100626.22
2023-02-28T12:36:23.096Z,100633.06
2023-02-28T12:42:38.239Z,100625.66
2023-02-28T12:48:58.654Z,100616.66
2023-02-28T12:55:21.997Z,100610.28
2023-02-28T13:01:51.390Z,100615.28
2023-02-28T13:08:29.673Z,100622.56
2023-02-28T13:14:38.376Z,100616.09
2023-02-28T13:20:49.252Z,100603.22
2023-02-28T13:26:53.819Z,100602.78
2023-02-28T13:33:27.621Z,100599.63
2023-02-28T13:39:36.402Z,100589.34
2023-02-28T13:45:40.609Z,100593.78
2023-02-28T13:52:15.994Z,100586.22
2023-02-28T13:58:23.648Z,100580.72
2023-02-28T14:04:58.563Z,100579.47
2023-02-28T14:11:10.611Z,100565.13
2023-02-28T14:17:18.081Z,100565.59
2023-02-28T14:23:57.745Z,100563.00
2023-02-28T14:30:15.347Z,100569.28
2023-02-28T14:36:27.403Z,100559.56
2023-02-28T14:42:42.598Z,100558.56
2023-02-28T14:48:48.674Z,100563.53
2023-02-28T14:55:11.401Z,100556.72
2023-02-28T15:01:13.353Z,100555.16
2023-02-28T15:07:16.465Z,100555.53
2023-02-28T15:13:20.113Z,100559.72
2023-02-28T15:19:42.565Z,100556.78
2023-02-28T15:25:45.089Z,100548.81
2023-02-28T15:31:58.091Z,100554.03
2023-02-28T15:38:12.318Z,100551.66
2023-02-28T15:44:37.906Z,100552.06
2023-02-28T15:50:40.107Z,100544.72
2023-02-28T15:56:53.954Z,100543.59
2023-02-28T16:02:56.136Z,100557.28
2023-02-28T16:08:58.229Z,100551.81
2023-02-28T16:15:08.418Z,100546.94
2023-02-28T16:21:10.361Z,100556.22
2023-02-28T16:27:38.262Z,100566.88
2023-02-28T16:33:40.157Z,100555.59
2023-02-28T16:39:43.492Z,100566.38
2023-02-28T16:45:46.250Z,100578.03
2023-02-28T16:51:48.636Z,100565.88
2023-02-28T16:58:02.987Z,100574.19
2023-02-28T17:04:05.024Z,100598.28
2023-02-28T17:10:21.401Z,100599.84
2023-02-28T17:16:31.256Z,100596.28
2023-02-28T17:22:33.836Z,100610.66
2023-02-28T17:28:35.768Z,100618.09
2023-02-28T17:34:38.211Z,100621.78
2023-02-28T17:40:40.109Z,100617.78
2023-02-28T17:46:43.111Z,100633.72
2023-02-28T17:52:45.023Z,100640.19
2023-02-28T17:58:47.484Z,100636.88
2023-02-28T18:04:49.379Z,100630.38
2023-02-28T18:10:51.369Z,100641.88
2023-02-28T18:16:55.144Z,100636.13
2023-02-28T18:22:57.109Z,100641.63
2023-02-28T18:28:59.063Z,100637.00
2023-02-28T18:35:01.019Z,100629.63
2023-02-28T18:41:05.631Z,100627.19
2023-02-28T18:47:07.986Z,100624.00
2023-02-28T18:53:09.906Z,100620.94
2023-02-28T18:59:12.502Z,100624.09
2023-02-28T19:05:14.481Z,100629.94
2023-02-28T19:11:19.422Z,100625.16
2023-02-28T19:17:21.675Z,100621.16
2023-02-28T19:23:23.553Z,100621.53
2023-02-28T19:29:25.511Z,100620.81
2023-02-28T19:35:27.558Z,100626.69
2023-02-28T19:41:29.656Z,100633.00
2023-02-28T19:47:31.720Z,100630.84
2023-02-28T19:53:36.318Z,100646.22
2023-02-28T19:59:40.228Z,100632.94
2023-02-28T20:05:42.248Z,100635.56
2023-02-28T20:11:45.905Z,100630.31
2023-02-28T20:17:47.854Z,100630.31
2023-02-28T20:23:49.993Z,100632.69
2023-02-28T20:29:53.189Z,100635.25
2023-02-28T20:36:05.586Z,100628.38
2023-02-28T20:42:07.601Z,100633.19
2023-02-28T20:48:09.470Z,100638.00
2023-02-28T20:54:11.783Z,100644.31
2023-02-28T21:00:19.437Z,100650.22
2023-02-28T21:06:25.037Z,100650.41
2023-02-28T21:12:26.943Z,100657.25
2023-02-28T21:18:28.815Z,100657.91
2023-02-28T21:24:31.123Z,100647.16
2023-02-28T21:30:33.019Z,100635.53
2023-02-28T21:36:45.200Z,100645.34
2023-02-28T21:42:47.096Z,100643.22
2023-02-28T21:48:49.786Z,100645.97
2023-02-28T21:54:51.690Z,100643.81
2023-02-28T22:00:53.594Z,100640.25
2023-02-28T22:06:59.535Z,100643.94
2023-02-28T22:13:03.628Z,100649.38
2023-02-28T22:19:07.871Z,100650.31
2023-02-28T22:25:10.335Z,100649.19
2023-02-28T22:31:15.643Z,100648.16
2023-02-28T22:37:17.685Z,100644.50
2023-02-28T22:43:19.595Z,100648.50
2023-02-28T22:49:21.528Z,100643.16
2023-02-28T22:55:23.472Z,100635.06
2023-02-28T23:01:28.520Z,100631.88
2023-02-28T23:07:30.458Z,100626.47
2023-02-28T23:13:32.390Z,100639.34
2023-02-28T23:19:34.332Z,100638.34
2023-02-28T23:25:40.431Z,100633.25
2023-02-28T23:31:42.802Z,100643.34
2023-02-28T23:37:44.913Z,100644.56
2023-02-28T23:43:47.643Z,100648.47
2023-02-28T23:49:49.776Z,100642.47
2023-02-28T23:55:52.217Z,100652.66
